sensor_id;sensor_type;location;lat;lon;timestamp;P1;durP1;ratioP1;P2;durP2;ratioP2
25962;SDS011;13760;52.588;13.406;2023-04-30T00:01:36;8.60;;;2.92;;
25962;SDS011;13760;52.588;13.406;2023-04-30T00:04:02;9.48;;;2.60;;
25962;SDS011;13760;52.588;13.406;2023-04-30T00:06:28;7.97;;;3.25;;
25962;SDS011;13760;52.588;13.406;2023-04-30T00:08:53;5.70;;;2.17;;
25962;SDS011;13760;52.588;13.406;2023-04-30T00:11:19;8.27;;;2.63;;
25962;SDS011;13760;52.588;13.406;2023-04-30T00:13:45;9.45;;;2.42;;
25962;SDS011;13760;52.588;13.406;2023-04-30T00:16:10;11.15;;;3.00;;
25962;SDS011;13760;52.588;13.406;2023-04-30T00:18:36;6.63;;;2.50;;
25962;SDS011;13760;52.588;13.406;2023-04-30T00:21:02;7.00;;;2.58;;
25962;SDS011;13760;52.588;13.406;2023-04-30T00:23:28;11.18;;;2.50;;
25962;SDS011;13760;52.588;13.406;2023-04-30T00:25:53;9.88;;;2.55;;
25962;SDS011;13760;52.588;13.406;2023-04-30T00:28:19;10.75;;;2.90;;
25962;SDS011;13760;52.588;13.406;2023-04-30T00:30:45;9.90;;;2.38;;
25962;SDS011;13760;52.588;13.406;2023-04-30T00:33:10;7.18;;;2.00;;
25962;SDS011;13760;52.588;13.406;2023-04-30T00:35:36;8.50;;;2.72;;
25962;SDS011;13760;52.588;13.406;2023-04-30T00:38:01;10.88;;;2.60;;
25962;SDS011;13760;52.588;13.406;2023-04-30T00:40:27;5.50;;;2.15;;
25962;SDS011;13760;52.588;13.406;2023-04-30T00:42:52;8.07;;;2.40;;
25962;SDS011;13760;52.588;13.406;2023-04-30T00:45:20;7.25;;;2.53;;
25962;SDS011;13760;52.588;13.406;2023-04-30T00:47:46;13.00;;;2.47;;
25962;SDS011;13760;52.588;13.406;2023-04-30T00:50:12;7.78;;;2.20;;
25962;SDS011;13760;52.588;13.406;2023-04-30T00:52:40;10.52;;;2.85;;
25962;SDS011;13760;52.588;13.406;2023-04-30T00:55:06;11.60;;;3.03;;
25962;SDS011;13760;52.588;13.406;2023-04-30T00:57:33;7.35;;;2.53;;
25962;SDS011;13760;52.588;13.406;2023-04-30T01:00:00;10.10;;;2.65;;
25962;SDS011;13760;52.588;13.406;2023-04-30T01:02:26;8.75;;;2.60;;
25962;SDS011;13760;52.588;13.406;2023-04-30T01:04:51;9.13;;;2.67;;
25962;SDS011;13760;52.588;13.406;2023-04-30T01:07:17;11.27;;;2.90;;
25962;SDS011;13760;52.588;13.406;2023-04-30T01:09:43;7.40;;;3.05;;
25962;SDS011;13760;52.588;13.406;2023-04-30T01:12:12;14.38;;;3.17;;
25962;SDS011;13760;52.588;13.406;2023-04-30T01:14:54;8.80;;;3.15;;
25962;SDS011;13760;52.588;13.406;2023-04-30T01:17:30;10.63;;;3.00;;
25962;SDS011;13760;52.588;13.406;2023-04-30T01:20:01;8.95;;;2.85;;
25962;SDS011;13760;52.588;13.406;2023-04-30T01:30:21;10.95;;;2.72;;
25962;SDS011;13760;52.588;13.406;2023-04-30T01:32:47;6.63;;;2.50;;
25962;SDS011;13760;52.588;13.406;2023-04-30T01:35:13;11.68;;;2.95;;
25962;SDS011;13760;52.588;13.406;2023-04-30T01:37:45;11.05;;;3.70;;
25962;SDS011;13760;52.588;13.406;2023-04-30T01:40:27;9.30;;;3.22;;
25962;SDS011;13760;52.588;13.406;2023-04-30T01:43:53;14.50;;;3.00;;
25962;SDS011;13760;52.588;13.406;2023-04-30T01:48:54;10.23;;;3.00;;
25962;SDS011;13760;52.588;13.406;2023-04-30T01:51:43;7.93;;;3.25;;
25962;SDS011;13760;52.588;13.406;2023-04-30T01:54:23;12.35;;;3.10;;
25962;SDS011;13760;52.588;13.406;2023-04-30T01:57:00;10.73;;;3.15;;
25962;SDS011;13760;52.588;13.406;2023-04-30T01:59:30;9.55;;;3.05;;
25962;SDS011;13760;52.588;13.406;2023-04-30T02:01:57;10.13;;;3.28;;
25962;SDS011;13760;52.588;13.406;2023-04-30T02:04:22;15.70;;;3.92;;
25962;SDS011;13760;52.588;13.406;2023-04-30T02:06:48;14.18;;;3.17;;
25962;SDS011;13760;52.588;13.406;2023-04-30T02:09:13;15.07;;;3.60;;
25962;SDS011;13760;52.588;13.406;2023-04-30T02:11:39;18.73;;;3.47;;
25962;SDS011;13760;52.588;13.406;2023-04-30T02:14:05;11.90;;;3.20;;
25962;SDS011;13760;52.588;13.406;2023-04-30T02:16:30;12.70;;;3.13;;
25962;SDS011;13760;52.588;13.406;2023-04-30T02:18:56;18.20;;;3.58;;
25962;SDS011;13760;52.588;13.406;2023-04-30T02:21:21;8.30;;;3.08;;
25962;SDS011;13760;52.588;13.406;2023-04-30T02:23:47;9.23;;;3.30;;
25962;SDS011;13760;52.588;13.406;2023-04-30T02:26:13;10.13;;;3.05;;
25962;SDS011;13760;52.588;13.406;2023-04-30T02:28:38;8.82;;;3.58;;
25962;SDS011;13760;52.588;13.406;2023-04-30T02:31:04;12.13;;;3.35;;
25962;SDS011;13760;52.588;13.406;2023-04-30T02:33:30;11.10;;;3.42;;
25962;SDS011;13760;52.588;13.406;2023-04-30T02:35:57;7.53;;;3.35;;
25962;SDS011;13760;52.588;13.406;2023-04-30T02:38:23;10.88;;;2.78;;
25962;SDS011;13760;52.588;13.406;2023-04-30T02:40:49;9.80;;;3.33;;
25962;SDS011;13760;52.588;13.406;2023-04-30T02:43:14;11.55;;;3.22;;
25962;SDS011;13760;52.588;13.406;2023-04-30T02:45:40;13.63;;;3.47;;
25962;SDS011;13760;52.588;13.406;2023-04-30T02:48:05;11.82;;;3.28;;
25962;SDS011;13760;52.588;13.406;2023-04-30T02:50:31;10.02;;;2.90;;
25962;SDS011;13760;52.588;13.406;2023-04-30T02:52:57;10.88;;;2.88;;
25962;SDS011;13760;52.588;13.406;2023-04-30T02:55:22;12.10;;;3.10;;
25962;SDS011;13760;52.588;13.406;2023-04-30T02:57:48;10.68;;;2.97;;
25962;SDS011;13760;52.588;13.406;2023-04-30T03:00:13;9.18;;;3.40;;
25962;SDS011;13760;52.588;13.406;2023-04-30T03:02:39;9.75;;;3.50;;
25962;SDS011;13760;52.588;13.406;2023-04-30T03:05:05;14.02;;;3.60;;
25962;SDS011;13760;52.588;13.406;2023-04-30T03:07:30;15.18;;;3.90;;
25962;SDS011;13760;52.588;13.406;2023-04-30T03:09:56;16.38;;;4.07;;
25962;SDS011;13760;52.588;13.406;2023-04-30T03:12:21;11.95;;;3.45;;
25962;SDS011;13760;52.588;13.406;2023-04-30T03:14:47;13.13;;;3.60;;
25962;SDS011;13760;52.588;13.406;2023-04-30T03:17:12;9.63;;;4.00;;
25962;SDS011;13760;52.588;13.406;2023-04-30T03:19:38;12.65;;;3.35;;
25962;SDS011;13760;52.588;13.406;2023-04-30T03:22:03;11.52;;;3.88;;
25962;SDS011;13760;52.588;13.406;2023-04-30T03:24:29;13.48;;;4.53;;
25962;SDS011;13760;52.588;13.406;2023-04-30T03:26:55;17.70;;;4.97;;
25962;SDS011;13760;52.588;13.406;2023-04-30T03:29:20;13.13;;;4.68;;
25962;SDS011;13760;52.588;13.406;2023-04-30T03:31:46;12.48;;;4.35;;
25962;SDS011;13760;52.588;13.406;2023-04-30T03:34:11;13.52;;;4.72;;
25962;SDS011;13760;52.588;13.406;2023-04-30T03:36:37;13.10;;;4.30;;
25962;SDS011;13760;52.588;13.406;2023-04-30T03:39:02;9.75;;;4.28;;
25962;SDS011;13760;52.588;13.406;2023-04-30T03:41:28;11.68;;;4.40;;
25962;SDS011;13760;52.588;13.406;2023-04-30T03:43:54;16.80;;;4.50;;
25962;SDS011;13760;52.588;13.406;2023-04-30T03:46:19;12.80;;;4.18;;
25962;SDS011;13760;52.588;13.406;2023-04-30T03:48:45;11.45;;;4.28;;
25962;SDS011;13760;52.588;13.406;2023-04-30T03:51:11;11.05;;;4.93;;
25962;SDS011;13760;52.588;13.406;2023-04-30T03:53:36;14.15;;;4.20;;
25962;SDS011;13760;52.588;13.406;2023-04-30T03:56:02;9.32;;;4.05;;
25962;SDS011;13760;52.588;13.406;2023-04-30T03:58:29;12.38;;;4.43;;
25962;SDS011;13760;52.588;13.406;2023-04-30T04:00:55;13.95;;;4.78;;
25962;SDS011;13760;52.588;13.406;2023-04-30T04:03:20;18.10;;;5.10;;
25962;SDS011;13760;52.588;13.406;2023-04-30T04:05:46;11.85;;;4.93;;
25962;SDS011;13760;52.588;13.406;2023-04-30T04:08:13;11.82;;;5.00;;
25962;SDS011;13760;52.588;13.406;2023-04-30T04:10:38;15.07;;;5.43;;
25962;SDS011;13760;52.588;13.406;2023-04-30T04:13:05;15.43;;;4.90;;
25962;SDS011;13760;52.588;13.406;2023-04-30T04:15:31;12.30;;;4.75;;
25962;SDS011;13760;52.588;13.406;2023-04-30T04:17:57;12.65;;;4.82;;
25962;SDS011;13760;52.588;13.406;2023-04-30T04:20:22;11.73;;;4.18;;
25962;SDS011;13760;52.588;13.406;2023-04-30T04:22:48;13.73;;;5.00;;
25962;SDS011;13760;52.588;13.406;2023-04-30T04:25:13;12.05;;;4.65;;
25962;SDS011;13760;52.588;13.406;2023-04-30T04:27:39;8.57;;;4.50;;
25962;SDS011;13760;52.588;13.406;2023-04-30T04:30:05;16.23;;;4.75;;
25962;SDS011;13760;52.588;13.406;2023-04-30T04:32:31;11.43;;;4.60;;
25962;SDS011;13760;52.588;13.406;2023-04-30T04:34:56;12.82;;;4.82;;
25962;SDS011;13760;52.588;13.406;2023-04-30T04:37:22;11.48;;;4.20;;
25962;SDS011;13760;52.588;13.406;2023-04-30T04:39:48;21.08;;;5.15;;
25962;SDS011;13760;52.588;13.406;2023-04-30T04:42:15;16.67;;;4.30;;
25962;SDS011;13760;52.588;13.406;2023-04-30T04:44:41;10.88;;;4.00;;
25962;SDS011;13760;52.588;13.406;2023-04-30T04:47:07;10.30;;;4.13;;
25962;SDS011;13760;52.588;13.406;2023-04-30T04:49:34;11.80;;;4.50;;
25962;SDS011;13760;52.588;13.406;2023-04-30T04:51:59;14.85;;;4.78;;
25962;SDS011;13760;52.588;13.406;2023-04-30T04:54:25;13.93;;;4.43;;
25962;SDS011;13760;52.588;13.406;2023-04-30T04:56:51;16.23;;;4.85;;
25962;SDS011;13760;52.588;13.406;2023-04-30T04:59:17;9.80;;;4.28;;
25962;SDS011;13760;52.588;13.406;2023-04-30T05:01:42;15.15;;;4.82;;
25962;SDS011;13760;52.588;13.406;2023-04-30T05:04:08;10.10;;;4.88;;
25962;SDS011;13760;52.588;13.406;2023-04-30T05:06:34;15.98;;;4.80;;
25962;SDS011;13760;52.588;13.406;2023-04-30T05:08:59;15.07;;;4.50;;
25962;SDS011;13760;52.588;13.406;2023-04-30T05:11:26;9.80;;;4.35;;
25962;SDS011;13760;52.588;13.406;2023-04-30T05:13:51;12.15;;;4.93;;
25962;SDS011;13760;52.588;13.406;2023-04-30T05:16:17;13.80;;;4.80;;
25962;SDS011;13760;52.588;13.406;2023-04-30T05:18:42;9.82;;;4.57;;
25962;SDS011;13760;52.588;13.406;2023-04-30T05:21:08;9.85;;;4.13;;
25962;SDS011;13760;52.588;13.406;2023-04-30T05:23:33;10.85;;;4.80;;
25962;SDS011;13760;52.588;13.406;2023-04-30T05:25:59;14.27;;;4.65;;
25962;SDS011;13760;52.588;13.406;2023-04-30T05:28:24;14.25;;;4.72;;
25962;SDS011;13760;52.588;13.406;2023-04-30T05:30:50;16.38;;;4.90;;
25962;SDS011;13760;52.588;13.406;2023-04-30T05:33:15;9.88;;;4.47;;
25962;SDS011;13760;52.588;13.406;2023-04-30T05:35:41;12.55;;;4.68;;
25962;SDS011;13760;52.588;13.406;2023-04-30T05:38:06;11.68;;;4.50;;
25962;SDS011;13760;52.588;13.406;2023-04-30T05:40:32;12.43;;;4.45;;
25962;SDS011;13760;52.588;13.406;2023-04-30T05:42:57;15.15;;;4.95;;
25962;SDS011;13760;52.588;13.406;2023-04-30T05:45:23;18.15;;;4.82;;
25962;SDS011;13760;52.588;13.406;2023-04-30T05:47:48;15.43;;;4.50;;
25962;SDS011;13760;52.588;13.406;2023-04-30T05:50:14;14.07;;;4.57;;
25962;SDS011;13760;52.588;13.406;2023-04-30T05:52:40;15.95;;;4.28;;
25962;SDS011;13760;52.588;13.406;2023-04-30T05:55:05;14.00;;;4.53;;
25962;SDS011;13760;52.588;13.406;2023-04-30T05:57:31;11.38;;;4.47;;
25962;SDS011;13760;52.588;13.406;2023-04-30T05:59:59;12.88;;;4.10;;
25962;SDS011;13760;52.588;13.406;2023-04-30T06:02:24;12.75;;;4.20;;
25962;SDS011;13760;52.588;13.406;2023-04-30T06:04:50;14.68;;;4.45;;
25962;SDS011;13760;52.588;13.406;2023-04-30T06:07:16;10.60;;;4.10;;
25962;SDS011;13760;52.588;13.406;2023-04-30T06:09:41;8.63;;;4.40;;
25962;SDS011;13760;52.588;13.406;2023-04-30T06:12:07;18.20;;;4.43;;
25962;SDS011;13760;52.588;13.406;2023-04-30T06:14:32;13.18;;;4.45;;
25962;SDS011;13760;52.588;13.406;2023-04-30T06:16:59;13.90;;;4.30;;
25962;SDS011;13760;52.588;13.406;2023-04-30T06:19:25;10.95;;;4.10;;
25962;SDS011;13760;52.588;13.406;2023-04-30T06:21:50;15.35;;;4.72;;
25962;SDS011;13760;52.588;13.406;2023-04-30T06:24:16;14.98;;;4.07;;
25962;SDS011;13760;52.588;13.406;2023-04-30T06:26:41;17.17;;;4.40;;
25962;SDS011;13760;52.588;13.406;2023-04-30T06:29:07;15.98;;;4.47;;
25962;SDS011;13760;52.588;13.406;2023-04-30T06:31:33;15.43;;;4.18;;
25962;SDS011;13760;52.588;13.406;2023-04-30T06:33:58;14.85;;;4.80;;
25962;SDS011;13760;52.588;13.406;2023-04-30T06:36:24;12.23;;;4.15;;
25962;SDS011;13760;52.588;13.406;2023-04-30T06:38:49;12.65;;;4.10;;
25962;SDS011;13760;52.588;13.406;2023-04-30T06:41:15;16.17;;;4.40;;
25962;SDS011;13760;52.588;13.406;2023-04-30T06:43:41;15.02;;;4.28;;
25962;SDS011;13760;52.588;13.406;2023-04-30T06:46:07;11.00;;;3.83;;
25962;SDS011;13760;52.588;13.406;2023-04-30T06:48:33;14.55;;;4.05;;
25962;SDS011;13760;52.588;13.406;2023-04-30T06:51:01;13.38;;;3.83;;
25962;SDS011;13760;52.588;13.406;2023-04-30T06:53:26;15.90;;;3.75;;
25962;SDS011;13760;52.588;13.406;2023-04-30T06:55:52;11.95;;;4.10;;
25962;SDS011;13760;52.588;13.406;2023-04-30T06:58:18;15.52;;;4.68;;
25962;SDS011;13760;52.588;13.406;2023-04-30T07:00:44;13.55;;;5.10;;
25962;SDS011;13760;52.588;13.406;2023-04-30T07:03:09;13.82;;;4.32;;
25962;SDS011;13760;52.588;13.406;2023-04-30T07:05:35;10.57;;;4.18;;
25962;SDS011;13760;52.588;13.406;2023-04-30T07:08:01;10.30;;;4.28;;
25962;SDS011;13760;52.588;13.406;2023-04-30T07:10:28;15.15;;;4.15;;
25962;SDS011;13760;52.588;13.406;2023-04-30T07:12:54;11.80;;;3.90;;
25962;SDS011;13760;52.588;13.406;2023-04-30T07:15:20;23.50;;;4.32;;
25962;SDS011;13760;52.588;13.406;2023-04-30T07:17:46;12.43;;;3.72;;
25962;SDS011;13760;52.588;13.406;2023-04-30T07:20:11;12.07;;;4.05;;
25962;SDS011;13760;52.588;13.406;2023-04-30T07:22:41;11.68;;;3.85;;
25962;SDS011;13760;52.588;13.406;2023-04-30T07:25:10;12.63;;;3.58;;
25962;SDS011;13760;52.588;13.406;2023-04-30T07:27:39;8.07;;;3.20;;
25962;SDS011;13760;52.588;13.406;2023-04-30T07:30:05;12.65;;;3.53;;
25962;SDS011;13760;52.588;13.406;2023-04-30T07:32:33;9.82;;;3.33;;
25962;SDS011;13760;52.588;13.406;2023-04-30T07:34:59;9.50;;;3.35;;
25962;SDS011;13760;52.588;13.406;2023-04-30T07:37:25;9.13;;;3.47;;
25962;SDS011;13760;52.588;13.406;2023-04-30T07:39:51;10.40;;;3.42;;
25962;SDS011;13760;52.588;13.406;2023-04-30T07:42:16;8.88;;;3.40;;
25962;SDS011;13760;52.588;13.406;2023-04-30T07:44:42;13.50;;;3.22;;
25962;SDS011;13760;52.588;13.406;2023-04-30T07:47:07;8.55;;;3.53;;
25962;SDS011;13760;52.588;13.406;2023-04-30T07:49:33;11.30;;;4.20;;
25962;SDS011;13760;52.588;13.406;2023-04-30T07:51:59;9.95;;;3.33;;
25962;SDS011;13760;52.588;13.406;2023-04-30T07:54:25;14.75;;;3.70;;
25962;SDS011;13760;52.588;13.406;2023-04-30T07:56:51;16.70;;;3.40;;
25962;SDS011;13760;52.588;13.406;2023-04-30T07:59:17;10.02;;;3.08;;
25962;SDS011;13760;52.588;13.406;2023-04-30T08:01:42;7.93;;;2.70;;
25962;SDS011;13760;52.588;13.406;2023-04-30T08:04:08;8.23;;;3.05;;
25962;SDS011;13760;52.588;13.406;2023-04-30T08:06:34;10.75;;;3.13;;
25962;SDS011;13760;52.588;13.406;2023-04-30T08:08:59;7.78;;;3.40;;
25962;SDS011;13760;52.588;13.406;2023-04-30T08:11:25;5.57;;;2.78;;
25962;SDS011;13760;52.588;13.406;2023-04-30T08:13:51;10.80;;;3.40;;
25962;SDS011;13760;52.588;13.406;2023-04-30T08:16:17;6.97;;;3.25;;
25962;SDS011;13760;52.588;13.406;2023-04-30T08:18:42;8.73;;;3.10;;
25962;SDS011;13760;52.588;13.406;2023-04-30T08:21:10;8.35;;;2.90;;
25962;SDS011;13760;52.588;13.406;2023-04-30T08:23:36;7.60;;;2.85;;
25962;SDS011;13760;52.588;13.406;2023-04-30T08:26:02;10.15;;;2.85;;
25962;SDS011;13760;52.588;13.406;2023-04-30T08:28:27;6.95;;;3.00;;
25962;SDS011;13760;52.588;13.406;2023-04-30T08:30:53;6.93;;;3.15;;
25962;SDS011;13760;52.588;13.406;2023-04-30T08:33:19;11.93;;;3.47;;
25962;SDS011;13760;52.588;13.406;2023-04-30T08:35:44;7.95;;;2.67;;
25962;SDS011;13760;52.588;13.406;2023-04-30T08:38:10;6.50;;;2.40;;
25962;SDS011;13760;52.588;13.406;2023-04-30T08:40:35;4.93;;;2.20;;
25962;SDS011;13760;52.588;13.406;2023-04-30T08:45:33;8.50;;;2.58;;
25962;SDS011;13760;52.588;13.406;2023-04-30T08:48:01;8.45;;;2.70;;
25962;SDS011;13760;52.588;13.406;2023-04-30T08:50:29;9.52;;;2.70;;
25962;SDS011;13760;52.588;13.406;2023-04-30T08:52:56;7.65;;;2.55;;
25962;SDS011;13760;52.588;13.406;2023-04-30T08:55:23;9.52;;;2.80;;
25962;SDS011;13760;52.588;13.406;2023-04-30T08:57:50;8.25;;;2.80;;
25962;SDS011;13760;52.588;13.406;2023-04-30T09:00:16;7.05;;;2.95;;
25962;SDS011;13760;52.588;13.406;2023-04-30T09:02:41;7.97;;;2.72;;
25962;SDS011;13760;52.588;13.406;2023-04-30T09:05:08;7.38;;;2.25;;
25962;SDS011;13760;52.588;13.406;2023-04-30T09:07:36;6.72;;;2.60;;
25962;SDS011;13760;52.588;13.406;2023-04-30T09:12:43;6.90;;;2.75;;
25962;SDS011;13760;52.588;13.406;2023-04-30T09:15:21;6.32;;;2.40;;
25962;SDS011;13760;52.588;13.406;2023-04-30T09:17:47;6.10;;;2.28;;
25962;SDS011;13760;52.588;13.406;2023-04-30T09:20:13;6.38;;;2.22;;
25962;SDS011;13760;52.588;13.406;2023-04-30T09:22:39;7.32;;;2.28;;
25962;SDS011;13760;52.588;13.406;2023-04-30T09:25:06;7.45;;;2.28;;
25962;SDS011;13760;52.588;13.406;2023-04-30T09:27:32;6.10;;;2.53;;
25962;SDS011;13760;52.588;13.406;2023-04-30T09:29:58;8.73;;;2.80;;
25962;SDS011;13760;52.588;13.406;2023-04-30T09:32:24;7.50;;;2.50;;
25962;SDS011;13760;52.588;13.406;2023-04-30T09:34:50;6.68;;;2.53;;
25962;SDS011;13760;52.588;13.406;2023-04-30T09:37:16;7.68;;;2.40;;
25962;SDS011;13760;52.588;13.406;2023-04-30T09:39:49;4.65;;;2.40;;
25962;SDS011;13760;52.588;13.406;2023-04-30T09:42:16;6.70;;;2.35;;
25962;SDS011;13760;52.588;13.406;2023-04-30T09:44:43;5.45;;;2.42;;
25962;SDS011;13760;52.588;13.406;2023-04-30T09:52:06;5.55;;;2.42;;
25962;SDS011;13760;52.588;13.406;2023-04-30T09:54:33;5.00;;;2.30;;
25962;SDS011;13760;52.588;13.406;2023-04-30T09:57:00;7.38;;;2.45;;
25962;SDS011;13760;52.588;13.406;2023-04-30T09:59:36;4.70;;;2.42;;
25962;SDS011;13760;52.588;13.406;2023-04-30T10:02:04;7.13;;;2.33;;
25962;SDS011;13760;52.588;13.406;2023-04-30T10:04:35;6.93;;;2.42;;
25962;SDS011;13760;52.588;13.406;2023-04-30T10:07:07;6.05;;;2.13;;
25962;SDS011;13760;52.588;13.406;2023-04-30T10:09:42;9.07;;;2.40;;
25962;SDS011;13760;52.588;13.406;2023-04-30T10:12:33;7.15;;;2.60;;
25962;SDS011;13760;52.588;13.406;2023-04-30T10:18:06;5.10;;;2.30;;
25962;SDS011;13760;52.588;13.406;2023-04-30T10:20:35;5.43;;;2.40;;
25962;SDS011;13760;52.588;13.406;2023-04-30T10:23:02;8.45;;;2.45;;
25962;SDS011;13760;52.588;13.406;2023-04-30T10:25:29;8.48;;;2.72;;
25962;SDS011;13760;52.588;13.406;2023-04-30T10:27:56;5.85;;;2.15;;
25962;SDS011;13760;52.588;13.406;2023-04-30T10:30:22;7.25;;;2.30;;
25962;SDS011;13760;52.588;13.406;2023-04-30T10:35:27;6.18;;;2.65;;
25962;SDS011;13760;52.588;13.406;2023-04-30T10:37:59;5.57;;;2.30;;
25962;SDS011;13760;52.588;13.406;2023-04-30T10:40:34;7.82;;;2.58;;
25962;SDS011;13760;52.588;13.406;2023-04-30T10:43:01;8.45;;;2.70;;
25962;SDS011;13760;52.588;13.406;2023-04-30T10:45:33;8.02;;;2.47;;
25962;SDS011;13760;52.588;13.406;2023-04-30T10:48:04;7.18;;;2.50;;
25962;SDS011;13760;52.588;13.406;2023-04-30T10:50:30;7.68;;;2.67;;
25962;SDS011;13760;52.588;13.406;2023-04-30T10:53:03;8.13;;;2.97;;
25962;SDS011;13760;52.588;13.406;2023-04-30T10:55:30;8.02;;;2.58;;
25962;SDS011;13760;52.588;13.406;2023-04-30T10:57:59;6.15;;;2.42;;
25962;SDS011;13760;52.588;13.406;2023-04-30T11:00:25;4.65;;;2.60;;
25962;SDS011;13760;52.588;13.406;2023-04-30T11:03:15;8.18;;;2.85;;
25962;SDS011;13760;52.588;13.406;2023-04-30T11:05:42;6.07;;;2.60;;
25962;SDS011;13760;52.588;13.406;2023-04-30T11:08:10;7.60;;;2.40;;
25962;SDS011;13760;52.588;13.406;2023-04-30T11:13:22;6.15;;;2.72;;
25962;SDS011;13760;52.588;13.406;2023-04-30T11:15:51;7.03;;;2.42;;
25962;SDS011;13760;52.588;13.406;2023-04-30T11:18:29;8.07;;;2.83;;
25962;SDS011;13760;52.588;13.406;2023-04-30T11:20:58;6.50;;;2.30;;
25962;SDS011;13760;52.588;13.406;2023-04-30T11:23:25;9.77;;;2.90;;
25962;SDS011;13760;52.588;13.406;2023-04-30T11:25:52;6.75;;;2.40;;
25962;SDS011;13760;52.588;13.406;2023-04-30T11:28:23;8.35;;;2.63;;
25962;SDS011;13760;52.588;13.406;2023-04-30T11:30:59;7.25;;;2.80;;
25962;SDS011;13760;52.588;13.406;2023-04-30T11:33:26;7.85;;;2.65;;
25962;SDS011;13760;52.588;13.406;2023-04-30T11:35:53;8.13;;;2.47;;
25962;SDS011;13760;52.588;13.406;2023-04-30T11:38:30;7.97;;;2.47;;
25962;SDS011;13760;52.588;13.406;2023-04-30T11:40:59;7.35;;;2.13;;
25962;SDS011;13760;52.588;13.406;2023-04-30T11:43:27;6.65;;;2.45;;
25962;SDS011;13760;52.588;13.406;2023-04-30T11:46:00;7.97;;;2.40;;
25962;SDS011;13760;52.588;13.406;2023-04-30T11:48:33;6.72;;;2.22;;
25962;SDS011;13760;52.588;13.406;2023-04-30T11:51:19;7.25;;;2.65;;
25962;SDS011;13760;52.588;13.406;2023-04-30T11:53:46;5.20;;;2.30;;
25962;SDS011;13760;52.588;13.406;2023-04-30T11:56:16;6.15;;;2.53;;
25962;SDS011;13760;52.588;13.406;2023-04-30T11:58:46;7.40;;;2.80;;
25962;SDS011;13760;52.588;13.406;2023-04-30T12:01:12;6.63;;;2.70;;
25962;SDS011;13760;52.588;13.406;2023-04-30T12:03:39;3.67;;;1.98;;
25962;SDS011;13760;52.588;13.406;2023-04-30T12:06:20;7.13;;;2.45;;
25962;SDS011;13760;52.588;13.406;2023-04-30T12:08:47;8.45;;;2.60;;
25962;SDS011;13760;52.588;13.406;2023-04-30T12:11:19;8.88;;;2.55;;
25962;SDS011;13760;52.588;13.406;2023-04-30T12:13:56;7.45;;;2.70;;
25962;SDS011;13760;52.588;13.406;2023-04-30T12:16:27;6.55;;;2.30;;
25962;SDS011;13760;52.588;13.406;2023-04-30T12:19:02;9.02;;;2.45;;
25962;SDS011;13760;52.588;13.406;2023-04-30T12:21:28;6.55;;;2.58;;
25962;SDS011;13760;52.588;13.406;2023-04-30T12:23:53;6.07;;;2.85;;
25962;SDS011;13760;52.588;13.406;2023-04-30T12:26:19;7.55;;;2.63;;
25962;SDS011;13760;52.588;13.406;2023-04-30T12:28:48;5.90;;;2.60;;
25962;SDS011;13760;52.588;13.406;2023-04-30T12:31:17;6.47;;;2.67;;
25962;SDS011;13760;52.588;13.406;2023-04-30T12:33:43;4.57;;;2.40;;
25962;SDS011;13760;52.588;13.406;2023-04-30T12:36:11;6.57;;;2.78;;
25962;SDS011;13760;52.588;13.406;2023-04-30T12:38:41;7.72;;;2.33;;
25962;SDS011;13760;52.588;13.406;2023-04-30T12:41:10;5.88;;;2.45;;
25962;SDS011;13760;52.588;13.406;2023-04-30T12:43:37;6.28;;;2.17;;
25962;SDS011;13760;52.588;13.406;2023-04-30T12:46:03;8.18;;;2.47;;
25962;SDS011;13760;52.588;13.406;2023-04-30T12:48:28;10.63;;;2.70;;
25962;SDS011;13760;52.588;13.406;2023-04-30T12:50:55;5.93;;;2.85;;
25962;SDS011;13760;52.588;13.406;2023-04-30T12:53:25;6.78;;;2.35;;
25962;SDS011;13760;52.588;13.406;2023-04-30T12:56:07;8.27;;;2.70;;
25962;SDS011;13760;52.588;13.406;2023-04-30T12:58:40;5.10;;;2.35;;
25962;SDS011;13760;52.588;13.406;2023-04-30T13:01:09;8.40;;;2.65;;
25962;SDS011;13760;52.588;13.406;2023-04-30T13:03:36;6.72;;;2.50;;
25962;SDS011;13760;52.588;13.406;2023-04-30T13:06:02;8.77;;;2.78;;
25962;SDS011;13760;52.588;13.406;2023-04-30T13:08:29;6.50;;;2.47;;
25962;SDS011;13760;52.588;13.406;2023-04-30T13:10:54;6.60;;;2.30;;
25962;SDS011;13760;52.588;13.406;2023-04-30T13:13:20;6.10;;;2.42;;
25962;SDS011;13760;52.588;13.406;2023-04-30T13:15:45;7.07;;;2.70;;
25962;SDS011;13760;52.588;13.406;2023-04-30T13:18:12;9.60;;;3.10;;
25962;SDS011;13760;52.588;13.406;2023-04-30T13:20:39;8.55;;;2.20;;
25962;SDS011;13760;52.588;13.406;2023-04-30T13:23:05;5.40;;;2.50;;
25962;SDS011;13760;52.588;13.406;2023-04-30T13:25:31;9.05;;;2.75;;
25962;SDS011;13760;52.588;13.406;2023-04-30T13:27:57;5.93;;;2.50;;
25962;SDS011;13760;52.588;13.406;2023-04-30T13:30:23;7.80;;;2.63;;
25962;SDS011;13760;52.588;13.406;2023-04-30T13:32:49;6.72;;;2.53;;
25962;SDS011;13760;52.588;13.406;2023-04-30T13:35:15;8.07;;;2.70;;
25962;SDS011;13760;52.588;13.406;2023-04-30T13:37:41;4.88;;;2.38;;
25962;SDS011;13760;52.588;13.406;2023-04-30T13:40:07;9.35;;;2.50;;
25962;SDS011;13760;52.588;13.406;2023-04-30T13:42:35;8.13;;;2.75;;
25962;SDS011;13760;52.588;13.406;2023-04-30T13:45:02;9.00;;;2.53;;
25962;SDS011;13760;52.588;13.406;2023-04-30T13:47:29;5.47;;;2.30;;
25962;SDS011;13760;52.588;13.406;2023-04-30T13:49:54;4.68;;;2.33;;
25962;SDS011;13760;52.588;13.406;2023-04-30T13:52:20;6.07;;;2.72;;
25962;SDS011;13760;52.588;13.406;2023-04-30T13:54:45;7.82;;;3.03;;
25962;SDS011;13760;52.588;13.406;2023-04-30T13:57:11;7.95;;;2.60;;
25962;SDS011;13760;52.588;13.406;2023-04-30T13:59:37;5.45;;;2.60;;
25962;SDS011;13760;52.588;13.406;2023-04-30T14:02:02;5.82;;;2.20;;
25962;SDS011;13760;52.588;13.406;2023-04-30T14:04:28;6.10;;;2.47;;
25962;SDS011;13760;52.588;13.406;2023-04-30T14:06:55;7.25;;;2.67;;
25962;SDS011;13760;52.588;13.406;2023-04-30T14:09:21;5.75;;;1.80;;
25962;SDS011;13760;52.588;13.406;2023-04-30T14:11:47;8.80;;;2.10;;
25962;SDS011;13760;52.588;13.406;2023-04-30T14:14:12;7.10;;;2.17;;
25962;SDS011;13760;52.588;13.406;2023-04-30T14:16:38;6.93;;;2.47;;
25962;SDS011;13760;52.588;13.406;2023-04-30T14:19:04;5.20;;;1.98;;
25962;SDS011;13760;52.588;13.406;2023-04-30T14:21:30;9.60;;;2.40;;
25962;SDS011;13760;52.588;13.406;2023-04-30T14:23:57;4.82;;;1.90;;
25962;SDS011;13760;52.588;13.406;2023-04-30T14:26:22;5.10;;;1.92;;
25962;SDS011;13760;52.588;13.406;2023-04-30T14:28:48;4.35;;;2.00;;
25962;SDS011;13760;52.588;13.406;2023-04-30T14:31:14;16.42;;;2.40;;
25962;SDS011;13760;52.588;13.406;2023-04-30T14:33:39;4.95;;;1.88;;
25962;SDS011;13760;52.588;13.406;2023-04-30T14:36:05;5.15;;;2.15;;
25962;SDS011;13760;52.588;13.406;2023-04-30T14:38:31;5.43;;;2.20;;
25962;SDS011;13760;52.588;13.406;2023-04-30T14:40:57;8.80;;;2.58;;
25962;SDS011;13760;52.588;13.406;2023-04-30T14:43:22;8.75;;;2.20;;
25962;SDS011;13760;52.588;13.406;2023-04-30T14:45:48;8.00;;;2.20;;
25962;SDS011;13760;52.588;13.406;2023-04-30T14:48:15;5.75;;;2.22;;
25962;SDS011;13760;52.588;13.406;2023-04-30T14:50:40;6.85;;;2.30;;
25962;SDS011;13760;52.588;13.406;2023-04-30T14:53:08;9.80;;;2.55;;
25962;SDS011;13760;52.588;13.406;2023-04-30T14:55:35;5.07;;;2.20;;
25962;SDS011;13760;52.588;13.406;2023-04-30T14:58:01;5.00;;;2.20;;